sensor_id;sensor_type;location;lat;lon;timestamp;temperature;humidity
72865;DHT22;61000;48.120;11.548;2023-02-28T00:00:38;-1.90;99.90
72865;DHT22;61000;48.120;11.548;2023-02-28T00:03:05;-1.90;99.90
72865;DHT22;61000;48.120;11.548;2023-02-28T00:05:33;-1.90;99.90
72865;DHT22;61000;48.120;11.548;2023-02-28T00:08:00;-1.90;99.90
72865;DHT22;61000;48.120;11.548;2023-02-28T00:10:30;-1.90;99.90
72865;DHT22;61000;48.120;11.548;2023-02-28T00:13:00;-1.90;99.90
72865;DHT22;61000;48.120;11.548;2023-02-28T00:15:28;-2.00;99.90
72865;DHT22;61000;48.120;11.548;2023-02-28T00:17:55;-2.00;99.90
72865;DHT22;61000;48.120;11.548;2023-02-28T00:20:21;-2.00;99.90
72865;DHT22;61000;48.120;11.548;2023-02-28T00:22:51;-1.90;99.90
72865;DHT22;61000;48.120;11.548;2023-02-28T00:25:20;-1.90;99.90
72865;DHT22;61000;48.120;11.548;2023-02-28T00:27:48;-1.90;99.90
72865;DHT22;61000;48.120;11.548;2023-02-28T00:32:43;-2.00;99.90
72865;DHT22;61000;48.120;11.548;2023-02-28T00:35:10;-2.00;99.90
72865;DHT22;61000;48.120;11.548;2023-02-28T00:37:37;-2.00;99.90
72865;DHT22;61000;48.120;11.548;2023-02-28T00:40:07;-2.00;99.90
72865;DHT22;61000;48.120;11.548;2023-02-28T00:42:35;-2.00;99.90
72865;DHT22;61000;48.120;11.548;2023-02-28T00:45:03;-2.00;99.90
72865;DHT22;61000;48.120;11.548;2023-02-28T00:47:30;-2.00;99.90
72865;DHT22;61000;48.120;11.548;2023-02-28T00:49:57;-2.10;99.90
72865;DHT22;61000;48.120;11.548;2023-02-28T00:52:24;-2.10;99.90
72865;DHT22;61000;48.120;11.548;2023-02-28T00:54:51;-2.00;99.90
72865;DHT22;61000;48.120;11.548;2023-02-28T00:57:19;-2.10;99.90
72865;DHT22;61000;48.120;11.548;2023-02-28T00:59:46;-2.10;99.90
72865;DHT22;61000;48.120;11.548;2023-02-28T01:02:13;-2.10;99.90
72865;DHT22;61000;48.120;11.548;2023-02-28T01:04:40;-2.10;99.90
72865;DHT22;61000;48.120;11.548;2023-02-28T01:07:06;-2.10;99.90
72865;DHT22;61000;48.120;11.548;2023-02-28T01:09:33;-2.10;99.90
72865;DHT22;61000;48.120;11.548;2023-02-28T01:12:00;-2.10;99.90
72865;DHT22;61000;48.120;11.548;2023-02-28T01:14:28;-2.10;99.90
72865;DHT22;61000;48.120;11.548;2023-02-28T01:16:56;-2.10;99.90
72865;DHT22;61000;48.120;11.548;2023-02-28T01:19:24;-2.10;99.90
72865;DHT22;61000;48.120;11.548;2023-02-28T01:21:51;-2.20;99.90
72865;DHT22;61000;48.120;11.548;2023-02-28T01:24:18;-2.10;99.90
72865;DHT22;61000;48.120;11.548;2023-02-28T01:26:45;-2.20;99.90
72865;DHT22;61000;48.120;11.548;2023-02-28T01:29:11;-2.20;99.90
72865;DHT22;61000;48.120;11.548;2023-02-28T01:31:40;-2.20;99.90
72865;DHT22;61000;48.120;11.548;2023-02-28T01:34:07;-2.20;99.90
72865;DHT22;61000;48.120;11.548;2023-02-28T01:36:34;-2.20;99.90
72865;DHT22;61000;48.120;11.548;2023-02-28T01:39:02;-2.30;99.90
72865;DHT22;61000;48.120;11.548;2023-02-28T01:41:31;-2.30;99.90
72865;DHT22;61000;48.120;11.548;2023-02-28T01:44:03;-2.30;99.90
72865;DHT22;61000;48.120;11.548;2023-02-28T01:46:31;-2.20;99.90
72865;DHT22;61000;48.120;11.548;2023-02-28T01:49:04;-2.30;99.90
72865;DHT22;61000;48.120;11.548;2023-02-28T01:51:37;-2.30;99.90
72865;DHT22;61000;48.120;11.548;2023-02-28T01:54:08;-2.30;99.90
72865;DHT22;61000;48.120;11.548;2023-02-28T01:56:43;-2.30;99.90
72865;DHT22;61000;48.120;11.548;2023-02-28T01:59:14;-2.40;99.90
72865;DHT22;61000;48.120;11.548;2023-02-28T02:01:44;-2.30;99.90
72865;DHT22;61000;48.120;11.548;2023-02-28T02:04:12;-2.40;99.90
72865;DHT22;61000;48.120;11.548;2023-02-28T02:06:44;-2.40;99.90
72865;DHT22;61000;48.120;11.548;2023-02-28T02:09:12;-2.40;99.90
72865;DHT22;61000;48.120;11.548;2023-02-28T02:11:40;-2.40;99.90
72865;DHT22;61000;48.120;11.548;2023-02-28T02:14:31;-2.40;99.90
72865;DHT22;61000;48.120;11.548;2023-02-28T02:17:15;-2.40;99.90
72865;DHT22;61000;48.120;11.548;2023-02-28T02:23:06;-2.40;99.90
72865;DHT22;61000;48.120;11.548;2023-02-28T02:25:39;-2.50;99.90
72865;DHT22;61000;48.120;11.548;2023-02-28T02:28:36;-2.50;99.90
72865;DHT22;61000;48.120;11.548;2023-02-28T02:31:38;-2.50;99.90
72865;DHT22;61000;48.120;11.548;2023-02-28T02:34:29;-2.50;99.90
72865;DHT22;61000;48.120;11.548;2023-02-28T02:37:06;-2.50;99.90
72865;DHT22;61000;48.120;11.548;2023-02-28T02:39:40;-2.60;99.90
72865;DHT22;61000;48.120;11.548;2023-02-28T02:42:14;-2.60;99.90
72865;DHT22;61000;48.120;11.548;2023-02-28T02:44:46;-2.50;99.90
72865;DHT22;61000;48.120;11.548;2023-02-28T02:47:18;-2.60;99.90
72865;DHT22;61000;48.120;11.548;2023-02-28T02:49:50;-2.60;99.90
72865;DHT22;61000;48.120;11.548;2023-02-28T02:52:22;-2.60;99.90
72865;DHT22;61000;48.120;11.548;2023-02-28T02:54:52;-2.60;99.90
72865;DHT22;61000;48.120;11.548;2023-02-28T02:57:24;-2.60;99.90
72865;DHT22;61000;48.120;11.548;2023-02-28T02:59:55;-2.60;99.90
72865;DHT22;61000;48.120;11.548;2023-02-28T03:02:23;-2.70;99.90
72865;DHT22;61000;48.120;11.548;2023-02-28T03:04:56;-2.70;99.90
72865;DHT22;61000;48.120;11.548;2023-02-28T03:07:26;-2.60;99.90
72865;DHT22;61000;48.120;11.548;2023-02-28T03:09:54;-2.70;99.90
72865;DHT22;61000;48.120;11.548;2023-02-28T03:12:24;-2.70;99.90
72865;DHT22;61000;48.120;11.548;2023-02-28T03:14:59;-2.70;99.90
72865;DHT22;61000;48.120;11.548;2023-02-28T03:17:47;-2.70;99.90
72865;DHT22;61000;48.120;11.548;2023-02-28T03:20:27;-2.70;99.90
72865;DHT22;61000;48.120;11.548;2023-02-28T03:23:08;-2.70;99.90
72865;DHT22;61000;48.120;11.548;2023-02-28T03:25:43;-2.70;99.90
72865;DHT22;61000;48.120;11.548;2023-02-28T03:28:17;-2.70;99.90
72865;DHT22;61000;48.120;11.548;2023-02-28T03:30:48;-2.80;99.90
72865;DHT22;61000;48.120;11.548;2023-02-28T03:33:21;-2.80;99.90
72865;DHT22;61000;48.120;11.548;2023-02-28T03:35:55;-2.80;99.90
72865;DHT22;61000;48.120;11.548;2023-02-28T03:38:27;-2.80;99.90
72865;DHT22;61000;48.120;11.548;2023-02-28T03:41:00;-2.80;99.90
72865;DHT22;61000;48.120;11.548;2023-02-28T03:43:31;-2.80;99.90
72865;DHT22;61000;48.120;11.548;2023-02-28T03:46:03;-2.80;99.90
72865;DHT22;61000;48.120;11.548;2023-02-28T03:48:37;-2.80;99.90
72865;DHT22;61000;48.120;11.548;2023-02-28T03:51:09;-2.80;99.90
72865;DHT22;61000;48.120;11.548;2023-02-28T03:53:39;-2.90;99.90
72865;DHT22;61000;48.120;11.548;2023-02-28T03:56:12;-2.80;99.90
72865;DHT22;61000;48.120;11.548;2023-02-28T03:58:45;-2.80;99.90
72865;DHT22;61000;48.120;11.548;2023-02-28T04:01:20;-2.80;99.90
72865;DHT22;61000;48.120;11.548;2023-02-28T04:03:48;-2.80;99.90
72865;DHT22;61000;48.120;11.548;2023-02-28T04:06:18;-2.80;99.90
72865;DHT22;61000;48.120;11.548;2023-02-28T04:08:46;-2.80;99.90
72865;DHT22;61000;48.120;11.548;2023-02-28T04:11:20;-2.80;99.90
72865;DHT22;61000;48.120;11.548;2023-02-28T04:13:47;-2.80;99.90
72865;DHT22;61000;48.120;11.548;2023-02-28T04:16:14;-2.80;99.90
72865;DHT22;61000;48.120;11.548;2023-02-28T04:18:42;-2.80;99.90
72865;DHT22;61000;48.120;11.548;2023-02-28T04:21:10;-2.80;99.90
72865;DHT22;61000;48.120;11.548;2023-02-28T04:23:38;-2.80;99.90
72865;DHT22;61000;48.120;11.548;2023-02-28T04:26:05;-2.80;99.90
72865;DHT22;61000;48.120;11.548;2023-02-28T04:28:32;-2.80;99.90
72865;DHT22;61000;48.120;11.548;2023-02-28T04:31:02;-2.80;99.90
72865;DHT22;61000;48.120;11.548;2023-02-28T04:33:30;-2.80;99.90
72865;DHT22;61000;48.120;11.548;2023-02-28T04:36:01;-2.80;99.90
72865;DHT22;61000;48.120;11.548;2023-02-28T04:38:29;-2.80;99.90
72865;DHT22;61000;48.120;11.548;2023-02-28T04:40:59;-2.80;99.90
72865;DHT22;61000;48.120;11.548;2023-02-28T04:43:27;-2.80;99.90
72865;DHT22;61000;48.120;11.548;2023-02-28T04:45:54;-2.80;99.90
72865;DHT22;61000;48.120;11.548;2023-02-28T04:48:22;-2.80;99.90
72865;DHT22;61000;48.120;11.548;2023-02-28T04:50:50;-2.80;99.90
72865;DHT22;61000;48.120;11.548;2023-02-28T04:53:17;-2.80;99.90
72865;DHT22;61000;48.120;11.548;2023-02-28T04:55:44;-2.70;99.90
72865;DHT22;61000;48.120;11.548;2023-02-28T04:58:13;-2.70;99.90
72865;DHT22;61000;48.120;11.548;2023-02-28T05:00:40;-2.60;99.90
72865;DHT22;61000;48.120;11.548;2023-02-28T05:03:07;-2.60;99.90
72865;DHT22;61000;48.120;11.548;2023-02-28T05:05:34;-2.60;99.90
72865;DHT22;61000;48.120;11.548;2023-02-28T05:08:01;-2.60;99.90
72865;DHT22;61000;48.120;11.548;2023-02-28T05:10:28;-2.60;99.90
72865;DHT22;61000;48.120;11.548;2023-02-28T05:12:55;-2.50;99.90
72865;DHT22;61000;48.120;11.548;2023-02-28T05:15:24;-2.50;99.90
72865;DHT22;61000;48.120;11.548;2023-02-28T05:17:51;-2.50;99.90
72865;DHT22;61000;48.120;11.548;2023-02-28T05:20:18;-2.40;99.90
72865;DHT22;61000;48.120;11.548;2023-02-28T05:22:46;-2.40;99.90
72865;DHT22;61000;48.120;11.548;2023-02-28T05:25:17;-2.40;99.90
72865;DHT22;61000;48.120;11.548;2023-02-28T05:27:44;-2.40;99.90
72865;DHT22;61000;48.120;11.548;2023-02-28T05:30:12;-2.40;99.90
72865;DHT22;61000;48.120;11.548;2023-02-28T05:32:40;-2.30;99.90
72865;DHT22;61000;48.120;11.548;2023-02-28T05:35:10;-2.30;99.90
72865;DHT22;61000;48.120;11.548;2023-02-28T05:37:37;-2.30;99.90
72865;DHT22;61000;48.120;11.548;2023-02-28T05:40:06;-2.30;99.90
72865;DHT22;61000;48.120;11.548;2023-02-28T05:42:36;-2.30;99.90
72865;DHT22;61000;48.120;11.548;2023-02-28T05:45:03;-2.40;99.90
72865;DHT22;61000;48.120;11.548;2023-02-28T05:47:30;-2.20;99.90
72865;DHT22;61000;48.120;11.548;2023-02-28T05:49:58;-2.10;99.90
72865;DHT22;61000;48.120;11.548;2023-02-28T05:52:25;-2.10;99.90
72865;DHT22;61000;48.120;11.548;2023-02-28T05:54:52;-2.10;99.90
72865;DHT22;61000;48.120;11.548;2023-02-28T05:57:19;-2.10;99.90
72865;DHT22;61000;48.120;11.548;2023-02-28T05:59:46;-2.10;99.90
72865;DHT22;61000;48.120;11.548;2023-02-28T06:02:14;-2.10;99.90
72865;DHT22;61000;48.120;11.548;2023-02-28T06:04:42;-2.10;99.90
72865;DHT22;61000;48.120;11.548;2023-02-28T06:07:10;-2.10;99.90
72865;DHT22;61000;48.120;11.548;2023-02-28T06:09:37;-2.00;99.90
72865;DHT22;61000;48.120;11.548;2023-02-28T06:12:06;-2.10;99.90
72865;DHT22;61000;48.120;11.548;2023-02-28T06:14:35;-2.20;99.90
72865;DHT22;61000;48.120;11.548;2023-02-28T06:17:04;-2.20;99.90
72865;DHT22;61000;48.120;11.548;2023-02-28T06:19:31;-2.10;99.90
72865;DHT22;61000;48.120;11.548;2023-02-28T06:21:59;-2.10;99.90
72865;DHT22;61000;48.120;11.548;2023-02-28T06:24:27;-2.10;99.90
72865;DHT22;61000;48.120;11.548;2023-02-28T06:26:55;-2.20;99.90
72865;DHT22;61000;48.120;11.548;2023-02-28T06:29:24;-2.20;99.90
72865;DHT22;61000;48.120;11.548;2023-02-28T06:31:51;-2.20;99.90
72865;DHT22;61000;48.120;11.548;2023-02-28T06:34:18;-2.20;99.90
72865;DHT22;61000;48.120;11.548;2023-02-28T06:36:45;-2.10;99.90
72865;DHT22;61000;48.120;11.548;2023-02-28T06:39:11;-2.20;99.90
72865;DHT22;61000;48.120;11.548;2023-02-28T06:41:39;-2.20;99.90
72865;DHT22;61000;48.120;11.548;2023-02-28T06:44:11;-2.20;99.90
72865;DHT22;61000;48.120;11.548;2023-02-28T06:46:39;-2.20;99.90
72865;DHT22;61000;48.120;11.548;2023-02-28T06:49:06;-2.20;99.90
72865;DHT22;61000;48.120;11.548;2023-02-28T06:51:35;-2.20;99.90
72865;DHT22;61000;48.120;11.548;2023-02-28T06:54:03;-2.20;99.90
72865;DHT22;61000;48.120;11.548;2023-02-28T06:56:30;-2.20;99.90
72865;DHT22;61000;48.120;11.548;2023-02-28T06:58:59;-2.20;99.90
72865;DHT22;61000;48.120;11.548;2023-02-28T07:01:25;-2.20;99.90
72865;DHT22;61000;48.120;11.548;2023-02-28T07:03:54;-2.10;99.90
72865;DHT22;61000;48.120;11.548;2023-02-28T07:06:21;-2.00;99.90
72865;DHT22;61000;48.120;11.548;2023-02-28T07:08:49;-2.00;99.90
72865;DHT22;61000;48.120;11.548;2023-02-28T07:11:16;-2.00;99.90
72865;DHT22;61000;48.120;11.548;2023-02-28T07:13:43;-2.00;99.90
72865;DHT22;61000;48.120;11.548;2023-02-28T07:16:11;-2.00;99.90
72865;DHT22;61000;48.120;11.548;2023-02-28T07:18:39;-2.00;99.90
72865;DHT22;61000;48.120;11.548;2023-02-28T07:21:08;-2.00;99.90
72865;DHT22;61000;48.120;11.548;2023-02-28T07:23:35;-2.10;99.90
72865;DHT22;61000;48.120;11.548;2023-02-28T07:26:03;-2.10;99.90
72865;DHT22;61000;48.120;11.548;2023-02-28T07:28:30;-2.00;99.90
72865;DHT22;61000;48.120;11.548;2023-02-28T07:31:03;-2.00;99.90
72865;DHT22;61000;48.120;11.548;2023-02-28T07:33:31;-1.90;99.90
72865;DHT22;61000;48.120;11.548;2023-02-28T07:36:04;-1.90;99.90
72865;DHT22;61000;48.120;11.548;2023-02-28T07:38:31;-1.90;99.90
72865;DHT22;61000;48.120;11.548;2023-02-28T07:41:00;-1.90;99.90
72865;DHT22;61000;48.120;11.548;2023-02-28T07:43:30;-2.00;99.90
72865;DHT22;61000;48.120;11.548;2023-02-28T07:46:01;-2.00;99.90
72865;DHT22;61000;48.120;11.548;2023-02-28T07:48:28;-1.90;99.90
72865;DHT22;61000;48.120;11.548;2023-02-28T07:50:56;-1.90;99.90
72865;DHT22;61000;48.120;11.548;2023-02-28T07:53:23;-1.90;99.90
72865;DHT22;61000;48.120;11.548;2023-02-28T07:55:50;-1.90;99.90
72865;DHT22;61000;48.120;11.548;2023-02-28T07:58:18;-1.80;99.90
72865;DHT22;61000;48.120;11.548;2023-02-28T08:00:45;-1.80;99.90
72865;DHT22;61000;48.120;11.548;2023-02-28T08:03:12;-1.90;99.90
72865;DHT22;61000;48.120;11.548;2023-02-28T08:05:40;-1.90;99.90
72865;DHT22;61000;48.120;11.548;2023-02-28T08:08:08;-1.90;99.90
72865;DHT22;61000;48.120;11.548;2023-02-28T08:10:35;-1.90;99.90
72865;DHT22;61000;48.120;11.548;2023-02-28T08:13:02;-1.90;99.90
72865;DHT22;61000;48.120;11.548;2023-02-28T08:15:29;-1.90;99.90
72865;DHT22;61000;48.120;11.548;2023-02-28T08:17:56;-1.90;99.90
72865;DHT22;61000;48.120;11.548;2023-02-28T08:20:23;-1.80;99.90
72865;DHT22;61000;48.120;11.548;2023-02-28T08:22:50;-1.70;99.90
72865;DHT22;61000;48.120;11.548;2023-02-28T08:25:19;-1.60;99.90
72865;DHT22;61000;48.120;11.548;2023-02-28T08:27:46;-1.70;99.90
72865;DHT22;61000;48.120;11.548;2023-02-28T08:30:14;-1.60;99.90
72865;DHT22;61000;48.120;11.548;2023-02-28T08:32:41;-1.50;99.90
72865;DHT22;61000;48.120;11.548;2023-02-28T08:35:09;-1.40;99.90
72865;DHT22;61000;48.120;11.548;2023-02-28T08:37:36;-1.30;99.90
72865;DHT22;61000;48.120;11.548;2023-02-28T08:40:03;-1.40;99.90
72865;DHT22;61000;48.120;11.548;2023-02-28T08:42:31;-1.40;99.90
72865;DHT22;61000;48.120;11.548;2023-02-28T08:44:58;-1.40;99.90
72865;DHT22;61000;48.120;11.548;2023-02-28T08:47:25;-1.40;99.90
72865;DHT22;61000;48.120;11.548;2023-02-28T08:49:52;-1.40;99.90
72865;DHT22;61000;48.120;11.548;2023-02-28T08:52:22;-1.40;99.90
72865;DHT22;61000;48.120;11.548;2023-02-28T08:54:49;-1.30;99.90
72865;DHT22;61000;48.120;11.548;2023-02-28T08:57:16;-1.20;99.90
72865;DHT22;61000;48.120;11.548;2023-02-28T08:59:44;-1.10;99.90
72865;DHT22;61000;48.120;11.548;2023-02-28T09:02:12;-1.10;99.90
72865;DHT22;61000;48.120;11.548;2023-02-28T09:04:40;-1.00;99.90
72865;DHT22;61000;48.120;11.548;2023-02-28T09:07:07;-1.00;99.90
72865;DHT22;61000;48.120;11.548;2023-02-28T09:09:34;-0.90;99.90
72865;DHT22;61000;48.120;11.548;2023-02-28T09:12:01;-0.90;99.90
72865;DHT22;61000;48.120;11.548;2023-02-28T09:14:27;-0.80;99.90
72865;DHT22;61000;48.120;11.548;2023-02-28T09:16:56;-0.80;99.90
72865;DHT22;61000;48.120;11.548;2023-02-28T09:19:23;-0.70;99.90
72865;DHT22;61000;48.120;11.548;2023-02-28T09:21:49;-0.70;99.90
72865;DHT22;61000;48.120;11.548;2023-02-28T09:24:17;-0.80;99.90
72865;DHT22;61000;48.120;11.548;2023-02-28T09:26:46;-0.90;99.90
72865;DHT22;61000;48.120;11.548;2023-02-28T09:29:12;-0.90;99.90
72865;DHT22;61000;48.120;11.548;2023-02-28T09:31:40;-1.00;99.90
72865;DHT22;61000;48.120;11.548;2023-02-28T09:34:08;-1.10;99.90
72865;DHT22;61000;48.120;11.548;2023-02-28T09:36:35;-1.00;99.90
72865;DHT22;61000;48.120;11.548;2023-02-28T09:39:03;-0.90;99.90
72865;DHT22;61000;48.120;11.548;2023-02-28T09:41:37;-0.80;99.90
72865;DHT22;61000;48.120;11.548;2023-02-28T09:44:07;-0.70;99.90
72865;DHT22;61000;48.120;11.548;2023-02-28T09:46:42;-0.70;99.90
72865;DHT22;61000;48.120;11.548;2023-02-28T09:49:15;-0.70;99.90
72865;DHT22;61000;48.120;11.548;2023-02-28T09:51:49;-0.70;99.90
72865;DHT22;61000;48.120;11.548;2023-02-28T09:54:20;-0.70;99.90
72865;DHT22;61000;48.120;11.548;2023-02-28T09:56:50;-0.70;99.90
72865;DHT22;61000;48.120;11.548;2023-02-28T09:59:48;-0.60;99.90
72865;DHT22;61000;48.120;11.548;2023-02-28T10:02:38;-0.50;99.90
72865;DHT22;61000;48.120;11.548;2023-02-28T10:05:12;-0.60;99.90
72865;DHT22;61000;48.120;11.548;2023-02-28T10:07:58;-0.60;99.90
72865;DHT22;61000;48.120;11.548;2023-02-28T10:10:30;-0.70;99.90
72865;DHT22;61000;48.120;11.548;2023-02-28T10:13:00;-0.50;99.90
72865;DHT22;61000;48.120;11.548;2023-02-28T10:15:31;-0.50;99.90
72865;DHT22;61000;48.120;11.548;2023-02-28T10:18:00;-0.40;99.90
72865;DHT22;61000;48.120;11.548;2023-02-28T10:20:33;-0.40;99.90
72865;DHT22;61000;48.120;11.548;2023-02-28T10:23:05;-0.40;99.90
72865;DHT22;61000;48.120;11.548;2023-02-28T10:25:37;-0.50;99.90
72865;DHT22;61000;48.120;11.548;2023-02-28T10:28:11;-0.50;99.90
72865;DHT22;61000;48.120;11.548;2023-02-28T10:30:41;-0.50;99.90
72865;DHT22;61000;48.120;11.548;2023-02-28T10:33:17;-0.30;99.90
72865;DHT22;61000;48.120;11.548;2023-02-28T10:35:46;-0.20;99.90
72865;DHT22;61000;48.120;11.548;2023-02-28T10:38:17;-0.30;99.90
72865;DHT22;61000;48.120;11.548;2023-02-28T10:40:44;-0.20;99.90
72865;DHT22;61000;48.120;11.548;2023-02-28T10:43:22;-0.10;99.90
72865;DHT22;61000;48.120;11.548;2023-02-28T10:46:01;-0.20;99.90
72865;DHT22;61000;48.120;11.548;2023-02-28T10:48:37;-0.30;99.90
72865;DHT22;61000;48.120;11.548;2023-02-28T10:51:07;-0.20;99.90
72865;DHT22;61000;48.120;11.548;2023-02-28T10:53:38;-0.20;99.90
72865;DHT22;61000;48.120;11.548;2023-02-28T10:56:15;-0.10;99.90
72865;DHT22;61000;48.120;11.548;2023-02-28T10:58:49;0.10;99.90
72865;DHT22;61000;48.120;11.548;2023-02-28T11:01:19;0.10;99.90
72865;DHT22;61000;48.120;11.548;2023-02-28T11:03:46;0.20;99.90
72865;DHT22;61000;48.120;11.548;2023-02-28T11:06:17;0.20;99.60
72865;DHT22;61000;48.120;11.548;2023-02-28T11:08:46;0.30;99.60
72865;DHT22;61000;48.120;11.548;2023-02-28T11:11:14;0.20;99.50
72865;DHT22;61000;48.120;11.548;2023-02-28T11:13:44;0.40;99.80
72865;DHT22;61000;48.120;11.548;2023-02-28T11:16:13;0.60;99.90
72865;DHT22;61000;48.120;11.548;2023-02-28T11:18:43;0.70;99.90
72865;DHT22;61000;48.120;11.548;2023-02-28T11:21:20;0.80;99.90
72865;DHT22;61000;48.120;11.548;2023-02-28T11:23:50;0.70;99.90
72865;DHT22;61000;48.120;11.548;2023-02-28T11:26:36;0.80;99.90
72865;DHT22;61000;48.120;11.548;2023-02-28T11:29:10;0.80;99.90
72865;DHT22;61000;48.120;11.548;2023-02-28T11:31:37;1.00;99.90
72865;DHT22;61000;48.120;11.548;2023-02-28T11:34:23;1.00;99.90
72865;DHT22;61000;48.120;11.548;2023-02-28T11:36:53;1.10;99.90
72865;DHT22;61000;48.120;11.548;2023-02-28T11:39:21;1.20;99.90
72865;DHT22;61000;48.120;11.548;2023-02-28T11:42:00;1.20;99.90
72865;DHT22;61000;48.120;11.548;2023-02-28T11:44:37;1.50;99.90
72865;DHT22;61000;48.120;11.548;2023-02-28T11:47:11;1.90;99.90
72865;DHT22;61000;48.120;11.548;2023-02-28T11:49:46;2.00;99.90
72865;DHT22;61000;48.120;11.548;2023-02-28T11:52:25;2.20;99.90
72865;DHT22;61000;48.120;11.548;2023-02-28T11:55:14;2.10;99.70
72865;DHT22;61000;48.120;11.548;2023-02-28T11:58:04;2.10;99.90
72865;DHT22;61000;48.120;11.548;2023-02-28T12:00:50;2.00;99.90
72865;DHT22;61000;48.120;11.548;2023-02-28T12:03:27;1.90;99.10
72865;DHT22;61000;48.120;11.548;2023-02-28T12:06:03;2.00;99.40
72865;DHT22;61000;48.120;11.548;2023-02-28T12:08:47;1.70;99.20
72865;DHT22;61000;48.120;11.548;2023-02-28T12:11:27;1.50;99.10
72865;DHT22;61000;48.120;11.548;2023-02-28T12:14:06;1.60;99.00
72865;DHT22;61000;48.120;11.548;2023-02-28T12:16:44;1.90;98.90
72865;DHT22;61000;48.120;11.548;2023-02-28T12:19:21;2.40;99.40
72865;DHT22;61000;48.120;11.548;2023-02-28T12:22:15;2.60;99.90
72865;DHT22;61000;48.120;11.548;2023-02-28T12:27:41;2.00;99.70
72865;DHT22;61000;48.120;11.548;2023-02-28T12:30:17;2.10;99.90
72865;DHT22;61000;48.120;11.548;2023-02-28T12:32:47;2.20;99.80
72865;DHT22;61000;48.120;11.548;2023-02-28T12:35:19;2.20;99.40
72865;DHT22;61000;48.120;11.548;2023-02-28T12:37:52;2.50;99.30
72865;DHT22;61000;48.120;11.548;2023-02-28T12:40:25;2.80;98.90
72865;DHT22;61000;48.120;11.548;2023-02-28T12:42:57;3.00;98.20
72865;DHT22;61000;48.120;11.548;2023-02-28T12:45:27;3.10;99.90
72865;DHT22;61000;48.120;11.548;2023-02-28T12:48:00;3.10;99.20
72865;DHT22;61000;48.120;11.548;2023-02-28T12:50:30;3.00;98.90
72865;DHT22;61000;48.120;11.548;2023-02-28T12:53:02;3.00;98.70
72865;DHT22;61000;48.120;11.548;2023-02-28T12:55:37;3.00;98.60
72865;DHT22;61000;48.120;11.548;2023-02-28T12:58:13;3.20;98.70
72865;DHT22;61000;48.120;11.548;2023-02-28T13:00:53;3.30;95.00
72865;DHT22;61000;48.120;11.548;2023-02-28T13:03:45;3.40;94.40
72865;DHT22;61000;48.120;11.548;2023-02-28T13:06:28;3.40;94.20
72865;DHT22;61000;48.120;11.548;2023-02-28T13:09:02;3.10;94.40
72865;DHT22;61000;48.120;11.548;2023-02-28T13:11:33;3.00;94.60
72865;DHT22;61000;48.120;11.548;2023-02-28T13:14:02;2.90;94.70
72865;DHT22;61000;48.120;11.548;2023-02-28T13:16:53;2.80;94.50
72865;DHT22;61000;48.120;11.548;2023-02-28T13:19:22;2.90;94.80
72865;DHT22;61000;48.120;11.548;2023-02-28T13:21:50;2.90;95.00
72865;DHT22;61000;48.120;11.548;2023-02-28T13:24:40;3.00;95.00
72865;DHT22;61000;48.120;11.548;2023-02-28T13:27:33;3.00;94.60
72865;DHT22;61000;48.120;11.548;2023-02-28T13:30:01;3.00;94.50
72865;DHT22;61000;48.120;11.548;2023-02-28T13:32:34;2.80;94.50
72865;DHT22;61000;48.120;11.548;2023-02-28T13:35:42;2.80;95.10
72865;DHT22;61000;48.120;11.548;2023-02-28T13:38:23;2.80;95.20
72865;DHT22;61000;48.120;11.548;2023-02-28T13:40:50;2.80;95.10
72865;DHT22;61000;48.120;11.548;2023-02-28T13:43:19;2.70;95.00
72865;DHT22;61000;48.120;11.548;2023-02-28T13:46:06;2.70;95.20
72865;DHT22;61000;48.120;11.548;2023-02-28T13:48:34;2.60;95.40
72865;DHT22;61000;48.120;11.548;2023-02-28T13:57:15;2.70;96.00
72865;DHT22;61000;48.120;11.548;2023-02-28T13:59:53;2.80;95.40
72865;DHT22;61000;48.120;11.548;2023-02-28T14:02:44;2.90;95.10
72865;DHT22;61000;48.120;11.548;2023-02-28T14:05:14;2.70;94.90
72865;DHT22;61000;48.120;11.548;2023-02-28T14:07:45;2.70;95.10
72865;DHT22;61000;48.120;11.548;2023-02-28T14:10:26;2.70;95.10
72865;DHT22;61000;48.120;11.548;2023-02-28T14:12:57;2.70;95.30
72865;DHT22;61000;48.120;11.548;2023-02-28T14:15:48;2.70;95.10
72865;DHT22;61000;48.120;11.548;2023-02-28T14:18:25;2.60;95.30
72865;DHT22;61000;48.120;11.548;2023-02-28T14:20:57;2.70;95.40
72865;DHT22;61000;48.120;11.548;2023-02-28T14:23:46;2.80;95.70
72865;DHT22;61000;48.120;11.548;2023-02-28T14:26:29;2.90;95.40
72865;DHT22;61000;48.120;11.548;2023-02-28T14:29:12;2.90;95.40
72865;DHT22;61000;48.120;11.548;2023-02-28T14:31:48;2.90;95.10
72865;DHT22;61000;48.120;11.548;2023-02-28T14:34:31;2.90;95.10
72865;DHT22;61000;48.120;11.548;2023-02-28T14:37:02;3.00;95.20
72865;DHT22;61000;48.120;11.548;2023-02-28T14:39:30;3.10;95.00
72865;DHT22;61000;48.120;11.548;2023-02-28T14:41:58;3.20;94.70
72865;DHT22;61000;48.120;11.548;2023-02-28T14:44:29;3.40;94.60
72865;DHT22;61000;48.120;11.548;2023-02-28T14:46:59;3.40;94.60
72865;DHT22;61000;48.120;11.548;2023-02-28T14:49:31;3.40;94.70
72865;DHT22;61000;48.120;11.548;2023-02-28T14:52:05;3.40;94.30
72865;DHT22;61000;48.120;11.548;2023-02-28T14:54:35;3.20;94.40
72865;DHT22;61000;48.120;11.548;2023-02-28T14:57:02;3.20;94.60
72865;DHT22;61000;48.120;11.548;2023-02-28T14:59:31;3.30;94.60
72865;DHT22;61000;48.120;11.548;2023-02-28T15:02:17;3.20;94.70
72865;DHT22;61000;48.120;11.548;2023-02-28T15:04:52;3.40;94.80
72865;DHT22;61000;48.120;11.548;2023-02-28T15:07:19;3.30;94.60
72865;DHT22;61000;48.120;11.548;2023-02-28T15:10:10;3.30;94.70
72865;DHT22;61000;48.120;11.548;2023-02-28T15:12:39;3.40;94.70
72865;DHT22;61000;48.120;11.548;2023-02-28T15:15:15;3.30;94.60
72865;DHT22;61000;48.120;11.548;2023-02-28T15:17:46;3.30;94.90
72865;DHT22;61000;48.120;11.548;2023-02-28T15:20:15;3.30;94.80
72865;DHT22;61000;48.120;11.548;2023-02-28T15:22:42;3.20;94.80
72865;DHT22;61000;48.120;11.548;2023-02-28T15:25:11;3.30;94.90
72865;DHT22;61000;48.120;11.548;2023-02-28T15:27:43;3.20;94.90
72865;DHT22;61000;48.120;11.548;2023-02-28T15:30:16;3.20;95.00
72865;DHT22;61000;48.120;11.548;2023-02-28T15:32:47;3.20;95.10
72865;DHT22;61000;48.120;11.548;2023-02-28T15:35:30;3.20;95.30
72865;DHT22;61000;48.120;11.548;2023-02-28T15:38:00;3.20;95.10
72865;DHT22;61000;48.120;11.548;2023-02-28T15:40:29;3.20;95.10
72865;DHT22;61000;48.120;11.548;2023-02-28T15:43:04;3.10;95.10
72865;DHT22;61000;48.120;11.548;2023-02-28T15:45:36;3.10;95.00
72865;DHT22;61000;48.120;11.548;2023-02-28T15:48:17;3.00;94.90
72865;DHT22;61000;48.120;11.548;2023-02-28T15:50:47;3.00;95.00
72865;DHT22;61000;48.120;11.548;2023-02-28T15:53:17;3.00;95.20
72865;DHT22;61000;48.120;11.548;2023-02-28T15:55:45;2.90;95.30
72865;DHT22;61000;48.120;11.548;2023-02-28T15:58:18;2.90;95.40
72865;DHT22;61000;48.120;11.548;2023-02-28T16:01:07;2.90;95.50